createdAt,value
2022-10-19T00:00:40.482Z,77.60
2022-10-19T00:02:43.054Z,77.13
2022-10-19T00:04:45.727Z,77.18
2022-10-19T00:06:48.350Z,76.99
2022-10-19T00:08:50.944Z,77.09
2022-10-19T00:10:53.519Z,76.94
2022-10-19T00:12:56.239Z,77.58
2022-10-19T00:14:59.042Z,77.65
2022-10-19T00:17:03.024Z,77.47
2022-10-19T00:19:09.036Z,77.26
2022-10-19T00:21:13.248Z,77.51
2022-10-19T00:23:16.177Z,77.67
2022-10-19T00:25:18.984Z,77.61
2022-10-19T00:27:21.570Z,78.21
2022-10-19T00:29:24.146Z,78.36
2022-10-19T00:31:27.685Z,79.15
2022-10-19T00:33:31.666Z,80.11
2022-10-19T00:35:34.248Z,80.54
2022-10-19T00:37:36.859Z,81.37
2022-10-19T00:39:39.524Z,81.26
2022-10-19T00:41:43.463Z,80.91
2022-10-19T00:43:55.189Z,80.69
2022-10-19T00:45:57.791Z,79.54
2022-10-19T00:48:00.413Z,79.41
2022-10-19T00:50:04.912Z,79.36
2022-10-19T00:52:10.535Z,79.51
2022-10-19T00:54:13.654Z,79.80
2022-10-19T00:56:17.890Z,79.83
2022-10-19T00:58:21.590Z,79.32
2022-10-19T01:00:24.209Z,78.94
2022-10-19T01:02:26.999Z,78.64
2022-10-19T01:04:31.648Z,78.15
2022-10-19T01:06:36.915Z,77.95
2022-10-19T01:08:39.552Z,77.95
2022-10-19T01:10:51.831Z,77.38
2022-10-19T01:13:06.133Z,77.46
2022-10-19T01:15:21.434Z,77.75
2022-10-19T01:17:32.312Z,76.98
2022-10-19T01:20:08.809Z,76.14
2022-10-19T01:22:26.632Z,75.33
2022-10-19T01:25:07.151Z,75.73
2022-10-19T01:27:36.340Z,75.51
2022-10-19T01:29:57.373Z,76.47
2022-10-19T01:32:06.906Z,76.26
2022-10-19T01:34:17.671Z,76.76
2022-10-19T01:36:26.509Z,77.74
2022-10-19T01:38:35.186Z,78.19
2022-10-19T01:40:43.720Z,78.59
2022-10-19T01:42:52.657Z,79.42
2022-10-19T01:45:02.948Z,80.17
2022-10-19T01:47:08.064Z,80.67
2022-10-19T01:49:17.140Z,80.51
2022-10-19T01:51:24.151Z,80.58
2022-10-19T01:53:29.454Z,79.83
2022-10-19T01:55:33.267Z,80.25
2022-10-19T01:57:40.935Z,79.38
2022-10-19T01:59:45.016Z,79.50
2022-10-19T02:01:52.307Z,79.00
2022-10-19T02:03:55.859Z,78.56
2022-10-19T02:05:59.465Z,78.28
2022-10-19T02:08:05.501Z,77.88
2022-10-19T02:10:09.054Z,77.64
2022-10-19T02:12:13.180Z,77.07
2022-10-19T02:14:19.357Z,76.85
2022-10-19T02:16:27.091Z,76.61
2022-10-19T02:18:35.287Z,76.86
2022-10-19T02:20:38.417Z,76.16
2022-10-19T02:22:41.379Z,75.89
2022-10-19T02:24:43.947Z,75.24
2022-10-19T02:26:47.134Z,75.35
2022-10-19T02:28:50.457Z,75.37
2022-10-19T02:30:53.151Z,75.42
2022-10-19T02:32:55.910Z,75.54
2022-10-19T02:34:59.826Z,76.00
2022-10-19T02:37:02.570Z,75.40
2022-10-19T02:39:05.712Z,75.66
2022-10-19T02:41:12.973Z,76.68
2022-10-19T02:43:19.262Z,77.51
2022-10-19T02:45:26.832Z,76.91
2022-10-19T02:47:35.676Z,77.65
2022-10-19T02:49:39.715Z,77.18
2022-10-19T02:52:00.795Z,76.35
2022-10-19T02:54:05.407Z,76.54
2022-10-19T02:56:10.042Z,77.67
2022-10-19T02:58:12.682Z,78.31
2022-10-19T03:00:15.420Z,78.60
2022-10-19T03:02:19.397Z,78.87
2022-10-19T03:04:21.996Z,78.84
2022-10-19T03:06:24.575Z,78.27
2022-10-19T03:08:28.551Z,77.89
2022-10-19T03:10:31.162Z,77.65
2022-10-19T03:12:33.747Z,77.55
2022-10-19T03:14:36.337Z,78.00
2022-10-19T03:16:38.984Z,76.85
2022-10-19T03:18:41.901Z,76.85
2022-10-19T03:20:44.489Z,77.16
2022-10-19T03:22:47.109Z,76.98
2022-10-19T03:24:51.099Z,76.89
2022-10-19T03:26:53.644Z,76.93
2022-10-19T03:28:56.297Z,76.52
2022-10-19T03:30:59.060Z,76.69
2022-10-19T03:33:01.604Z,76.78
2022-10-19T03:35:04.392Z,76.78
2022-10-19T03:37:08.646Z,76.74
2022-10-19T03:39:13.982Z,76.68
2022-10-19T03:41:17.945Z,75.67
2022-10-19T03:43:20.520Z,75.99
2022-10-19T03:45:23.129Z,75.38
2022-10-19T03:47:25.792Z,75.66
2022-10-19T03:49:28.428Z,75.83
2022-10-19T03:51:32.958Z,75.62
2022-10-19T03:53:35.914Z,76.28
2022-10-19T03:55:38.498Z,76.40
2022-10-19T03:57:42.605Z,75.69
2022-10-19T03:59:45.203Z,75.61
2022-10-19T04:01:47.752Z,76.17
2022-10-19T04:03:54.416Z,76.26
2022-10-19T04:06:03.617Z,77.58
2022-10-19T04:08:06.870Z,77.01
2022-10-19T04:10:09.858Z,77.40
2022-10-19T04:12:12.419Z,77.43
2022-10-19T04:14:27.036Z,76.97
2022-10-19T04:16:35.648Z,75.90
2022-10-19T04:18:38.248Z,74.82
2022-10-19T04:20:42.750Z,74.54
2022-10-19T04:22:45.348Z,75.79
2022-10-19T04:24:47.912Z,75.74
2022-10-19T04:26:52.988Z,75.90
2022-10-19T04:28:57.506Z,76.43
2022-10-19T04:31:05.043Z,76.81
2022-10-19T04:33:07.618Z,77.48
2022-10-19T04:35:10.536Z,78.05
2022-10-19T04:37:13.118Z,78.35
2022-10-19T04:39:15.707Z,78.62
2022-10-19T04:41:20.002Z,78.70
2022-10-19T04:43:22.734Z,78.52
2022-10-19T04:45:25.386Z,78.66
2022-10-19T04:47:29.848Z,77.93
2022-10-19T04:49:32.432Z,77.67
2022-10-19T04:51:35.942Z,77.60
2022-10-19T04:53:40.772Z,77.47
2022-10-19T04:55:43.534Z,76.85
2022-10-19T04:57:46.187Z,76.74
2022-10-19T04:59:48.809Z,76.87
2022-10-19T05:01:51.403Z,76.23
2022-10-19T05:06:05.328Z,75.96
2022-10-19T05:08:08.253Z,75.69
2022-10-19T05:10:12.043Z,75.33
2022-10-19T05:12:14.732Z,75.04
2022-10-19T05:14:17.441Z,75.83
2022-10-19T05:16:22.677Z,76.88
2022-10-19T05:18:25.356Z,77.67
2022-10-19T05:20:29.357Z,78.02
2022-10-19T05:22:31.988Z,78.06
2022-10-19T05:24:34.613Z,77.42
2022-10-19T05:26:37.169Z,77.50
2022-10-19T05:28:39.894Z,78.12
2022-10-19T05:30:46.652Z,78.24
2022-10-19T05:32:51.551Z,78.12
2022-10-19T05:34:54.326Z,78.15
2022-10-19T05:36:58.250Z,78.43
2022-10-19T05:39:04.554Z,79.15
2022-10-19T05:41:07.776Z,78.87
2022-10-19T05:43:10.455Z,78.89
2022-10-19T05:45:13.070Z,78.79
2022-10-19T05:47:15.786Z,78.63
2022-10-19T05:49:20.340Z,78.74
2022-10-19T05:51:24.140Z,78.91
2022-10-19T05:53:28.734Z,79.40
2022-10-19T05:55:35.878Z,78.91
2022-10-19T05:57:38.438Z,79.23
2022-10-19T05:59:41.059Z,79.18
2022-10-19T06:01:43.703Z,78.58
2022-10-19T06:03:46.694Z,78.42
2022-10-19T06:05:49.866Z,78.20
2022-10-19T06:07:52.434Z,78.22
2022-10-19T06:09:56.311Z,79.11
2022-10-19T06:11:58.897Z,79.22
2022-10-19T06:14:02.857Z,79.51
2022-10-19T06:16:06.674Z,79.53
2022-10-19T06:18:10.584Z,79.13
2022-10-19T06:20:13.328Z,79.19
2022-10-19T06:22:15.971Z,79.56
2022-10-19T06:24:18.541Z,79.71
2022-10-19T06:26:22.899Z,79.23
2022-10-19T06:28:25.517Z,79.23
2022-10-19T06:30:28.573Z,79.41
2022-10-19T06:32:32.325Z,79.92
2022-10-19T06:34:34.938Z,80.35
2022-10-19T06:36:37.533Z,80.59
2022-10-19T06:38:40.701Z,80.29
2022-10-19T06:40:43.352Z,80.61
2022-10-19T06:42:47.338Z,80.41
2022-10-19T06:44:49.914Z,80.40
2022-10-19T06:46:52.511Z,80.36
2022-10-19T06:48:57.036Z,80.72
2022-10-19T06:51:00.705Z,81.06
2022-10-19T06:53:03.331Z,81.67
2022-10-19T06:55:06.926Z,81.14
2022-10-19T06:57:09.460Z,81.77
2022-10-19T06:59:14.828Z,80.33
2022-10-19T07:01:17.667Z,80.76
2022-10-19T07:03:20.308Z,81.14
2022-10-19T07:05:23.301Z,81.69
2022-10-19T07:07:25.896Z,82.14
2022-10-19T07:09:28.646Z,82.35
2022-10-19T07:11:31.327Z,82.70
2022-10-19T07:13:34.447Z,82.51
2022-10-19T07:15:38.423Z,82.56
2022-10-19T07:17:41.037Z,82.73
2022-10-19T07:19:43.665Z,82.66
2022-10-19T07:21:46.342Z,82.96
2022-10-19T07:23:49.556Z,82.79
2022-10-19T07:25:53.253Z,83.10
2022-10-19T07:27:55.836Z,82.71
2022-10-19T07:29:58.433Z,82.82
2022-10-19T07:32:02.359Z,82.67
2022-10-19T07:34:06.306Z,82.54
2022-10-19T07:36:10.783Z,82.31
2022-10-19T07:38:13.429Z,82.07
2022-10-19T07:40:16.200Z,82.12
2022-10-19T07:42:18.810Z,82.20
2022-10-19T07:44:21.466Z,82.29
2022-10-19T07:46:26.349Z,82.48
2022-10-19T07:48:30.446Z,82.54
2022-10-19T07:50:33.017Z,82.63
2022-10-19T07:52:36.986Z,82.61
2022-10-19T07:54:39.874Z,82.24
2022-10-19T07:56:42.464Z,82.78
2022-10-19T07:58:45.650Z,82.92
2022-10-19T08:00:48.395Z,82.89
2022-10-19T08:03:05.074Z,82.41
2022-10-19T08:05:15.414Z,83.03
2022-10-19T08:07:18.489Z,83.02
2022-10-19T08:09:50.891Z,82.87
2022-10-19T08:11:43.643Z,82.30
2022-10-19T08:13:46.500Z,82.82
2022-10-19T08:15:49.116Z,83.11
2022-10-19T08:17:51.662Z,83.25
2022-10-19T08:19:54.323Z,83.47
2022-10-19T08:21:58.443Z,83.32
2022-10-19T08:24:03.760Z,83.37
2022-10-19T08:26:06.782Z,83.45
2022-10-19T08:28:11.967Z,83.60
2022-10-19T08:30:14.665Z,83.60
2022-10-19T08:32:17.253Z,83.41
2022-10-19T08:34:19.914Z,83.52
2022-10-19T08:36:22.537Z,83.71
2022-10-19T08:38:26.509Z,83.74
2022-10-19T08:40:31.102Z,83.46
2022-10-19T08:42:51.494Z,83.43
2022-10-19T08:45:04.136Z,83.75
2022-10-19T08:47:17.541Z,83.84
2022-10-19T08:49:24.595Z,83.71
2022-10-19T08:51:28.336Z,83.48
2022-10-19T08:53:41.309Z,83.66
2022-10-19T08:55:58.640Z,83.55
2022-10-19T08:58:17.330Z,83.45
2022-10-19T09:00:29.510Z,83.29
2022-10-19T09:02:44.850Z,82.90
2022-10-19T09:04:51.387Z,82.81
2022-10-19T09:07:18.082Z,82.79
2022-10-19T09:09:22.280Z,82.72
2022-10-19T09:11:29.209Z,82.73
2022-10-19T09:13:41.628Z,82.67
2022-10-19T09:15:56.121Z,82.60
2022-10-19T09:17:58.853Z,82.59
2022-10-19T09:20:14.601Z,82.36
2022-10-19T09:22:21.388Z,82.30
2022-10-19T09:24:44.105Z,82.57
2022-10-19T09:26:53.568Z,82.01
2022-10-19T09:28:59.798Z,81.83
2022-10-19T09:31:03.317Z,81.93
2022-10-19T09:33:15.408Z,81.86
2022-10-19T09:35:27.778Z,82.19
2022-10-19T09:37:32.166Z,81.87
2022-10-19T09:39:36.336Z,82.11
2022-10-19T09:41:46.965Z,82.08
2022-10-19T09:43:54.075Z,81.77
2022-10-19T09:46:09.654Z,81.49
2022-10-19T09:48:27.314Z,81.25
2022-10-19T09:50:31.766Z,81.29
2022-10-19T09:52:38.085Z,81.39
2022-10-19T09:54:42.156Z,81.49
2022-10-19T09:56:54.563Z,81.40
2022-10-19T09:58:59.055Z,81.19
2022-10-19T10:01:03.778Z,80.34
2022-10-19T10:03:07.570Z,80.45
2022-10-19T10:05:15.976Z,80.51
2022-10-19T10:07:19.671Z,80.51
2022-10-19T10:09:27.196Z,79.92
2022-10-19T10:11:33.945Z,80.04
2022-10-19T10:13:39.319Z,80.01
2022-10-19T10:15:45.349Z,79.81
2022-10-19T10:17:49.591Z,80.04
2022-10-19T10:20:03.915Z,80.27
2022-10-19T10:22:06.532Z,80.20
2022-10-19T10:24:20.959Z,80.36
2022-10-19T10:26:26.881Z,80.22
2022-10-19T10:28:31.870Z,80.11
2022-10-19T10:30:37.770Z,80.33
2022-10-19T10:32:48.032Z,79.96
2022-10-19T10:35:01.671Z,80.28
2022-10-19T10:37:06.843Z,80.71
2022-10-19T10:39:16.917Z,80.60
2022-10-19T10:41:23.936Z,80.14
2022-10-19T10:43:32.800Z,80.20
2022-10-19T10:45:39.885Z,79.91
2022-10-19T10:47:48.118Z,80.00
2022-10-19T10:49:57.679Z,80.14
2022-10-19T10:52:05.455Z,79.98
2022-10-19T10:54:16.836Z,79.91
2022-10-19T10:56:25.643Z,79.88
2022-10-19T10:58:43.272Z,79.75
2022-10-19T11:00:46.706Z,79.29
2022-10-19T11:02:55.322Z,79.37
2022-10-19T11:05:02.769Z,79.24
2022-10-19T11:07:16.771Z,79.19
2022-10-19T11:09:27.045Z,79.00
2022-10-19T11:11:36.217Z,78.95
2022-10-19T11:13:46.028Z,78.93
2022-10-19T11:15:54.837Z,77.95
2022-10-19T11:18:07.258Z,78.21
2022-10-19T11:20:15.797Z,77.95
2022-10-19T11:22:26.387Z,77.50
2022-10-19T11:24:41.897Z,76.10
2022-10-19T11:27:00.535Z,76.55
2022-10-19T11:29:17.211Z,76.61
2022-10-19T11:31:23.366Z,76.49
2022-10-19T11:35:53.035Z,76.63
2022-10-19T11:38:19.542Z,77.44
2022-10-19T11:40:28.862Z,77.43
2022-10-19T11:45:07.101Z,77.83
2022-10-19T11:47:29.189Z,77.93
2022-10-19T11:49:43.439Z,77.36
2022-10-19T11:51:53.430Z,77.44
2022-10-19T11:54:12.363Z,77.42
2022-10-19T11:56:39.261Z,77.08
2022-10-19T11:59:03.902Z,77.84
2022-10-19T12:01:17.130Z,78.21
2022-10-19T12:03:37.207Z,78.19
2022-10-19T12:05:54.781Z,78.27
2022-10-19T12:08:15.264Z,76.91
2022-10-19T12:10:25.837Z,77.04
2022-10-19T12:12:33.514Z,76.16
2022-10-19T12:14:40.103Z,76.35
2022-10-19T12:16:46.849Z,76.77
2022-10-19T12:18:52.633Z,77.19
2022-10-19T12:20:59.656Z,76.99
2022-10-19T12:23:05.941Z,76.39
2022-10-19T12:25:13.590Z,75.84
2022-10-19T12:27:18.393Z,74.66
2022-10-19T12:29:24.556Z,74.61
2022-10-19T12:31:29.356Z,74.85
2022-10-19T12:33:45.475Z,72.31
2022-10-19T12:36:13.782Z,72.92
2022-10-19T12:38:27.231Z,71.70
2022-10-19T12:40:38.628Z,71.17
2022-10-19T12:42:51.840Z,71.65
2022-10-19T12:45:16.873Z,71.92
2022-10-19T12:47:21.625Z,71.67
2022-10-19T12:49:45.145Z,71.32
2022-10-19T12:51:50.366Z,69.14
2022-10-19T12:54:07.854Z,69.92
2022-10-19T12:56:16.355Z,68.41
2022-10-19T12:58:22.636Z,68.07
2022-10-19T13:00:27.773Z,69.00
2022-10-19T13:04:54.022Z,68.15
2022-10-19T13:07:03.546Z,67.30
2022-10-19T13:09:08.878Z,67.66
2022-10-19T13:11:15.105Z,67.47
2022-10-19T13:13:54.319Z,68.16
2022-10-19T13:15:57.463Z,67.28
2022-10-19T13:18:00.161Z,68.03
2022-10-19T13:22:51.502Z,68.21
2022-10-19T13:25:32.613Z,67.83
2022-10-19T13:27:39.681Z,68.50
2022-10-19T13:29:44.791Z,68.32
2022-10-19T13:31:47.425Z,68.31
2022-10-19T13:33:51.769Z,67.86
2022-10-19T13:36:07.906Z,67.31
2022-10-19T13:38:27.412Z,67.95
2022-10-19T13:40:31.322Z,67.81
2022-10-19T13:42:34.344Z,67.67
2022-10-19T13:44:39.454Z,68.12
2022-10-19T13:46:54.167Z,68.60
2022-10-19T13:49:32.493Z,68.12
2022-10-19T13:51:49.714Z,68.57
2022-10-19T13:54:02.255Z,68.20
2022-10-19T13:56:25.303Z,67.80
2022-10-19T13:59:07.497Z,68.78
2022-10-19T14:01:24.900Z,68.85
2022-10-19T14:03:43.559Z,68.90
2022-10-19T14:05:58.957Z,69.01
2022-10-19T14:08:17.463Z,68.48
2022-10-19T14:10:28.273Z,68.78
2022-10-19T14:12:40.542Z,67.76
2022-10-19T14:14:45.383Z,68.49
2022-10-19T14:16:50.842Z,68.35
2022-10-19T14:18:55.743Z,68.51
2022-10-19T14:20:59.457Z,68.67
2022-10-19T14:23:19.037Z,68.39
2022-10-19T14:25:26.881Z,68.76
2022-10-19T14:27:31.425Z,68.11
2022-10-19T14:29:43.979Z,68.29
2022-10-19T14:31:46.893Z,68.81
2022-10-19T14:33:53.609Z,69.34
2022-10-19T14:35:56.798Z,70.13
2022-10-19T14:38:00.143Z,69.70
2022-10-19T14:40:07.089Z,68.74
2022-10-19T14:42:11.852Z,68.86
2022-10-19T14:44:33.772Z,69.52
2022-10-19T14:46:37.044Z,69.81
2022-10-19T14:48:41.727Z,69.29
2022-10-19T14:50:49.098Z,69.45
2022-10-19T14:52:59.428Z,68.98
2022-10-19T14:55:07.585Z,68.04
2022-10-19T14:57:15.673Z,68.33
2022-10-19T14:59:25.736Z,68.18
2022-10-19T15:01:28.369Z,67.72
2022-10-19T15:03:32.167Z,68.19
2022-10-19T15:05:40.592Z,68.02
2022-10-19T15:07:44.566Z,67.95
2022-10-19T15:09:55.353Z,67.93
2022-10-19T15:12:06.041Z,68.19
2022-10-19T15:14:15.127Z,68.33
2022-10-19T15:16:45.654Z,68.87
2022-10-19T15:18:50.054Z,69.13
2022-10-19T15:21:12.600Z,69.53
2022-10-19T15:23:36.060Z,69.96
2022-10-19T15:25:38.714Z,69.80
2022-10-19T15:27:45.462Z,69.55
2022-10-19T15:29:57.881Z,69.61
2022-10-19T15:32:15.283Z,69.62
2022-10-19T15:34:25.243Z,68.32
2022-10-19T15:36:29.905Z,68.98
2022-10-19T15:38:34.652Z,69.28
2022-10-19T15:40:39.241Z,69.71
2022-10-19T15:42:44.468Z,69.58
2022-10-19T15:44:47.164Z,70.01
2022-10-19T15:47:19.381Z,70.09
2022-10-19T15:49:53.859Z,70.30
2022-10-19T15:51:56.497Z,69.37
2022-10-19T15:54:01.135Z,69.52
2022-10-19T15:56:06.924Z,69.96
2022-10-19T15:58:11.533Z,69.72
2022-10-19T16:00:17.019Z,69.27
2022-10-19T16:02:20.957Z,68.71
2022-10-19T16:04:23.530Z,69.25
2022-10-19T16:06:29.029Z,68.94
2022-10-19T16:08:31.648Z,68.87
2022-10-19T16:10:34.289Z,69.31
2022-10-19T16:12:36.904Z,70.11
2022-10-19T16:14:39.444Z,70.67
2022-10-19T16:16:42.940Z,70.98
2022-10-19T16:18:47.507Z,71.31
2022-10-19T16:20:50.081Z,71.76
2022-10-19T16:22:52.756Z,71.85
2022-10-19T16:24:55.396Z,71.88
2022-10-19T16:26:58.060Z,71.67
2022-10-19T16:29:01.619Z,71.97
2022-10-19T16:31:04.215Z,72.34
2022-10-19T16:33:06.912Z,72.48
2022-10-19T16:35:11.625Z,72.65
2022-10-19T16:37:14.222Z,72.43
2022-10-19T16:39:16.819Z,72.87
2022-10-19T16:41:19.357Z,73.13
2022-10-19T16:43:21.958Z,73.39
2022-10-19T16:45:24.661Z,73.83
2022-10-19T16:47:27.369Z,73.62
2022-10-19T16:49:30.233Z,73.64
2022-10-19T16:51:37.025Z,73.72
2022-10-19T16:53:39.714Z,73.14
2022-10-19T16:55:42.363Z,72.82
2022-10-19T16:57:44.981Z,72.66
2022-10-19T16:59:51.048Z,73.04
2022-10-19T17:01:53.786Z,72.70
2022-10-19T17:03:56.792Z,73.29
2022-10-19T17:05:59.508Z,73.14
2022-10-19T17:08:05.163Z,73.47
2022-10-19T17:10:08.155Z,73.63
2022-10-19T17:12:11.504Z,73.88
2022-10-19T17:14:14.252Z,73.83
2022-10-19T17:16:18.437Z,73.57
2022-10-19T17:18:21.028Z,74.10
2022-10-19T17:20:23.771Z,73.69
2022-10-19T17:22:26.890Z,73.70
2022-10-19T17:24:31.080Z,73.92
2022-10-19T17:26:35.976Z,74.21
2022-10-19T17:28:39.831Z,74.20
2022-10-19T17:30:42.489Z,74.33
2022-10-19T17:32:45.143Z,74.38
2022-10-19T17:34:47.755Z,74.13
2022-10-19T17:36:50.396Z,74.41
2022-10-19T17:38:53.951Z,74.22
2022-10-19T17:41:01.826Z,74.41
2022-10-19T17:43:04.446Z,74.73
2022-10-19T17:45:08.001Z,74.43
2022-10-19T17:47:10.742Z,74.50
2022-10-19T17:49:16.409Z,74.41
2022-10-19T17:51:20.853Z,74.72
2022-10-19T17:53:26.656Z,74.88
2022-10-19T17:55:29.352Z,74.76
2022-10-19T17:57:35.822Z,74.85
2022-10-19T17:59:52.019Z,74.76
2022-10-19T18:01:55.834Z,74.58
2022-10-19T18:03:58.663Z,75.04
2022-10-19T18:06:09.624Z,74.92
2022-10-19T18:08:13.503Z,74.80
2022-10-19T18:10:16.164Z,74.53
2022-10-19T18:12:18.805Z,74.79
2022-10-19T18:14:22.726Z,74.96
2022-10-19T18:16:27.429Z,75.17
2022-10-19T18:18:31.461Z,75.28
2022-10-19T18:20:34.014Z,75.32
2022-10-19T18:22:36.629Z,75.59
2022-10-19T18:24:39.419Z,75.36
2022-10-19T18:26:42.062Z,75.42
2022-10-19T18:28:44.627Z,74.58
2022-10-19T18:30:48.718Z,74.71
2022-10-19T18:32:51.570Z,74.38
2022-10-19T18:34:55.981Z,74.45
2022-10-19T18:36:58.579Z,74.06
2022-10-19T18:39:03.200Z,73.93
2022-10-19T18:41:07.276Z,73.58
2022-10-19T18:43:09.873Z,73.81
2022-10-19T18:45:12.488Z,73.84
2022-10-19T18:47:16.495Z,73.50
2022-10-19T18:49:19.090Z,73.61
2022-10-19T18:51:23.292Z,73.37
2022-10-19T18:53:25.888Z,72.84
2022-10-19T18:55:28.858Z,73.07
2022-10-19T18:57:31.992Z,73.01
2022-10-19T18:59:34.745Z,73.36
2022-10-19T19:01:37.386Z,73.23
2022-10-19T19:03:43.515Z,73.66
2022-10-19T19:05:46.100Z,73.53
2022-10-19T19:07:48.740Z,73.48
2022-10-19T19:09:51.413Z,73.61
2022-10-19T19:11:57.738Z,73.79
2022-10-19T19:14:01.889Z,73.52
2022-10-19T19:16:04.488Z,73.99
2022-10-19T19:18:07.298Z,73.89
2022-10-19T19:20:11.709Z,73.76
2022-10-19T19:22:14.335Z,73.27
2022-10-19T19:24:20.010Z,73.31
2022-10-19T19:26:26.369Z,73.25
2022-10-19T19:28:28.984Z,73.49
2022-10-19T19:30:31.546Z,73.38
2022-10-19T19:32:35.825Z,73.22
2022-10-19T19:34:38.611Z,73.36
2022-10-19T19:36:47.303Z,73.69
2022-10-19T19:38:51.055Z,73.99
2022-10-19T19:40:53.634Z,74.04
2022-10-19T19:42:56.266Z,74.23
2022-10-19T19:44:58.834Z,74.40
2022-10-19T19:47:02.261Z,74.23
2022-10-19T19:49:05.992Z,74.52
2022-10-19T19:51:09.185Z,74.65
2022-10-19T19:53:13.226Z,74.30
2022-10-19T19:55:16.051Z,74.61
2022-10-19T19:57:18.641Z,75.02
2022-10-19T19:59:21.432Z,75.04
2022-10-19T20:01:24.675Z,74.67
2022-10-19T20:03:27.376Z,74.71
2022-10-19T20:05:29.933Z,75.11
2022-10-19T20:07:32.681Z,74.61
2022-10-19T20:09:36.853Z,74.34
2022-10-19T20:11:42.784Z,74.39
2022-10-19T20:13:46.182Z,74.87
2022-10-19T20:15:48.813Z,75.12
2022-10-19T20:17:51.379Z,74.64
2022-10-19T20:19:54.077Z,75.22
2022-10-19T20:21:58.239Z,75.10
2022-10-19T20:24:01.489Z,75.31
2022-10-19T20:26:05.907Z,74.99
2022-10-19T20:28:08.549Z,73.12
2022-10-19T20:30:12.274Z,73.46
2022-10-19T20:32:14.866Z,74.34
2022-10-19T20:34:21.731Z,74.80
2022-10-19T20:36:27.308Z,75.21
2022-10-19T20:38:29.889Z,75.36
2022-10-19T20:40:32.490Z,75.19
2022-10-19T20:42:36.836Z,74.77
2022-10-19T20:44:39.547Z,74.87
2022-10-19T20:46:42.139Z,75.15
2022-10-19T20:48:44.962Z,74.62
2022-10-19T20:50:47.587Z,74.84
2022-10-19T20:52:50.132Z,76.26
2022-10-19T20:54:52.692Z,75.20
2022-10-19T20:56:55.343Z,75.06
2022-10-19T20:59:01.062Z,74.74
2022-10-19T21:01:08.991Z,75.80
2022-10-19T21:03:11.556Z,76.40
2022-10-19T21:05:14.945Z,76.31
2022-10-19T21:07:17.578Z,77.03
2022-10-19T21:09:22.456Z,76.63
2022-10-19T21:11:27.080Z,75.64
2022-10-19T21:13:29.677Z,76.18
2022-10-19T21:15:33.591Z,76.71
2022-10-19T21:17:36.184Z,75.73
2022-10-19T21:19:38.824Z,75.83
2022-10-19T21:21:43.745Z,75.74
2022-10-19T21:23:48.093Z,75.81
2022-10-19T21:25:54.678Z,74.97
2022-10-19T21:27:57.834Z,75.29
2022-10-19T21:30:00.518Z,73.93
2022-10-19T21:32:04.876Z,74.89
2022-10-19T21:34:09.461Z,75.16
2022-10-19T21:36:14.118Z,75.89
2022-10-19T21:38:16.702Z,76.18
2022-10-19T21:40:19.287Z,76.57
2022-10-19T21:42:21.831Z,76.19
2022-10-19T21:44:24.476Z,75.73
2022-10-19T21:46:27.637Z,76.45
2022-10-19T21:48:33.760Z,76.00
2022-10-19T21:50:36.779Z,75.96
2022-10-19T21:52:39.820Z,76.18
2022-10-19T21:54:42.364Z,76.30
2022-10-19T21:56:45.305Z,76.33
2022-10-19T21:58:48.884Z,75.30
2022-10-19T22:00:51.443Z,75.76
2022-10-19T22:02:54.075Z,76.01
2022-10-19T22:04:58.013Z,75.37
2022-10-19T22:07:01.330Z,75.55
2022-10-19T22:09:05.595Z,75.02
2022-10-19T22:11:10.446Z,75.35
2022-10-19T22:13:13.030Z,75.58
2022-10-19T22:15:15.761Z,75.19
2022-10-19T22:17:18.356Z,75.46
2022-10-19T22:19:20.945Z,76.11
2022-10-19T22:21:27.248Z,76.37
2022-10-19T22:23:29.882Z,76.50
2022-10-19T22:25:32.735Z,73.50
2022-10-19T22:27:35.304Z,73.89
2022-10-19T22:29:37.955Z,74.53
2022-10-19T22:31:40.842Z,75.79
2022-10-19T22:33:43.410Z,75.82
2022-10-19T22:35:54.114Z,76.58
2022-10-19T22:37:58.086Z,76.22
2022-10-19T22:40:00.678Z,76.26
2022-10-19T22:42:03.245Z,75.90
2022-10-19T22:44:06.311Z,74.11
2022-10-19T22:46:09.251Z,74.00
2022-10-19T22:48:11.788Z,75.11
2022-10-19T22:50:14.373Z,75.79
2022-10-19T22:52:17.198Z,75.83
2022-10-19T22:54:21.093Z,75.03
2022-10-19T22:56:23.669Z,75.21
2022-10-19T22:58:26.305Z,75.53
2022-10-19T23:00:28.857Z,75.40
2022-10-19T23:02:31.441Z,75.21
2022-10-19T23:04:34.053Z,75.40
2022-10-19T23:06:36.623Z,75.54
2022-10-19T23:08:39.654Z,76.00
2022-10-19T23:10:43.600Z,75.94
2022-10-19T23:12:49.953Z,75.80
2022-10-19T23:14:52.528Z,76.11
2022-10-19T23:16:55.076Z,75.95
2022-10-19T23:18:57.713Z,75.77
2022-10-19T23:21:01.969Z,75.64
2022-10-19T23:23:04.760Z,75.43
2022-10-19T23:25:08.375Z,75.33
2022-10-19T23:27:13.750Z,74.96
2022-10-19T23:29:16.312Z,75.75
2022-10-19T23:31:21.065Z,75.94
2022-10-19T23:33:23.621Z,75.82
2022-10-19T23:35:26.142Z,75.50
2022-10-19T23:37:28.697Z,75.58
2022-10-19T23:39:31.207Z,75.83
2022-10-19T23:41:33.869Z,76.04
2022-10-19T23:43:37.931Z,77.13
2022-10-19T23:45:40.701Z,77.85
2022-10-19T23:47:43.309Z,78.07
2022-10-19T23:49:45.929Z,78.14
2022-10-19T23:51:48.540Z,77.67
2022-10-19T23:53:52.873Z,77.86
2022-10-19T23:55:59.939Z,77.69
2022-10-19T23:58:02.477Z,77.75
